Time;durP1;ratioP1;P1;durP2;ratioP2;P2;SDS_P1;SDS_P2;PMS_P1;PMS_P2;Temp;Humidity;BMP_temperature;BMP_pressure;BME280_temperature;BME280_humidity;BME280_pressure;Samples;Min_cycle;Max_cycle;Signal;HPM_P1;HPM_P2
2023/02/04 00:02:09;;;;;;;36.30;20.95;;;;;;;5.37;100.00;99495.00;5110066;28;20040;-95
2023/02/04 00:04:35;;;;;;;32.78;19.98;;;;;;;5.47;100.00;99518.81;5110217;28;20040;-94
2023/02/04 00:07:00;;;;;;;38.63;21.02;;;;;;;5.29;100.00;99505.50;5109985;28;20516;-91
2023/02/04 00:09:26;;;;;;;36.22;20.10;;;;;;;5.41;100.00;99521.41;5113234;28;20050;-93
2023/02/04 00:11:54;;;;;;;37.35;21.50;;;;;;;5.48;100.00;99517.91;5110388;28;20551;-94
2023/02/04 00:14:19;;;;;;;37.15;20.80;;;;;;;5.47;100.00;99505.63;5119899;28;20056;-92
2023/02/04 00:16:45;;;;;;;39.60;21.92;;;;;;;5.38;100.00;99488.84;5109820;28;20070;-94
2023/02/04 00:19:11;;;;;;;37.95;22.45;;;;;;;5.34;100.00;99483.56;5110187;28;20093;-93
2023/02/04 00:21:37;;;;;;;42.38;23.52;;;;;;;5.37;100.00;99495.00;5109722;28;20044;-94
2023/02/04 00:24:03;;;;;;;41.88;23.27;;;;;;;5.36;100.00;99499.41;5110136;28;20460;-93
2023/02/04 00:26:29;;;;;;;43.20;24.60;;;;;;;5.34;100.00;99506.41;5125520;28;20039;-93
2023/02/04 00:28:56;;;;;;;36.28;20.90;;;;;;;5.24;100.00;99489.66;5109715;28;20036;-92
2023/02/04 00:31:22;;;;;;;38.55;22.77;;;;;;;5.19;100.00;99470.28;5108668;28;20031;-91
2023/02/04 00:33:48;;;;;;;39.35;22.90;;;;;;;5.20;100.00;99473.81;5109438;28;20119;-92
2023/02/04 00:36:13;;;;;;;33.28;20.42;;;;;;;5.25;100.00;99480.00;5109216;28;20044;-93
2023/02/04 00:38:40;;;;;;;34.95;21.23;;;;;;;5.27;100.00;99481.78;5109796;28;20048;-92
2023/02/04 00:41:06;;;;;;;43.30;22.13;;;;;;;5.18;100.00;99455.34;5112444;28;20043;-93
2023/02/04 00:43:32;;;;;;;38.88;22.05;;;;;;;5.19;100.00;99454.47;5109663;28;20039;-92
2023/02/04 00:45:59;;;;;;;37.92;22.50;;;;;;;5.35;100.00;99482.66;5109310;28;20090;-93
2023/02/04 00:48:25;;;;;;;33.65;20.88;;;;;;;5.28;100.00;99464.19;5099097;28;20136;-94
2023/02/04 00:50:52;;;;;;;38.60;22.67;;;;;;;5.31;100.00;99469.47;5096041;28;20040;-92
2023/02/04 00:53:18;;;;;;;35.40;21.20;;;;;;;5.24;100.00;99460.66;5095600;28;20064;-92
2023/02/04 00:55:45;;;;;;;37.03;20.60;;;;;;;5.44;100.00;99484.47;5095876;28;20486;-93
2023/02/04 00:58:11;;;;;;;37.17;19.75;;;;;;;5.41;100.00;99455.47;5095822;28;20047;-92
2023/02/04 01:00:37;;;;;;;36.58;21.23;;;;;;;5.46;100.00;99468.66;5095146;28;20486;-93
2023/02/04 01:03:04;;;;;;;35.70;21.63;;;;;;;5.48;100.00;99462.53;5095875;28;20210;-92
2023/02/04 01:05:30;;;;;;;36.05;21.02;;;;;;;5.54;100.00;99451.13;5100344;27;20383;-91
2023/02/04 01:07:56;;;;;;;36.63;21.65;;;;;;;5.40;100.00;99416.78;5098307;28;20130;-92
2023/02/04 01:10:22;;;;;;;34.97;20.10;;;;;;;5.43;100.00;99427.34;5098377;28;20063;-94
2023/02/04 01:12:48;;;;;;;38.50;20.92;;;;;;;5.41;100.00;99436.13;5098395;28;20519;-92
2023/02/04 01:15:15;;;;;;;37.45;21.17;;;;;;;5.37;100.00;99442.25;5097186;28;20130;-93
2023/02/04 01:17:41;;;;;;;36.33;20.42;;;;;;;5.45;100.00;99459.88;5098364;28;20036;-92
2023/02/04 01:20:10;;;;;;;38.65;20.20;;;;;;;5.33;100.00;99444.00;5098417;28;20036;-93
2023/02/04 01:22:36;;;;;;;32.25;18.95;;;;;;;5.27;100.00;99436.94;5098271;28;20138;-93
2023/02/04 01:25:02;;;;;;;30.45;18.60;;;;;;;5.27;100.00;99446.59;5097497;28;20050;-93
2023/02/04 01:27:28;;;;;;;33.30;19.13;;;;;;;5.15;100.00;99437.75;5098524;28;20036;-92
2023/02/04 01:29:54;;;;;;;41.58;21.65;;;;;;;5.07;100.00;99438.56;5097799;28;20043;-92
2023/02/04 01:32:20;;;;;;;37.10;20.90;;;;;;;4.95;100.00;99413.03;5097077;28;20074;-93
2023/02/04 01:34:46;;;;;;;33.95;20.48;;;;;;;4.89;100.00;99413.88;5097977;28;20043;-93
2023/02/04 01:37:13;;;;;;;35.15;19.73;;;;;;;5.04;100.00;99420.13;5097969;28;20039;-93
2023/02/04 01:39:39;;;;;;;33.58;20.95;;;;;;;4.97;100.00;99408.66;5098303;28;20058;-92
2023/02/04 01:42:05;;;;;;;39.53;22.88;;;;;;;5.05;100.00;99419.22;5097983;28;20040;-94
2023/02/04 01:44:31;;;;;;;53.75;27.17;;;;;;;5.02;100.00;99414.84;5097698;28;20032;-92
2023/02/04 01:46:57;;;;;;;39.58;21.85;;;;;;;4.94;100.00;99427.06;5096911;28;20043;-94
2023/02/04 01:49:23;;;;;;;41.17;21.23;;;;;;;4.73;100.00;99386.56;5097791;28;20043;-92
2023/02/04 01:51:49;;;;;;;35.50;21.55;;;;;;;4.74;100.00;99401.47;5099945;27;20043;-93
2023/02/04 01:54:17;;;;;;;37.53;21.88;;;;;;;4.80;100.00;99402.41;5098511;28;20044;-92
2023/02/04 01:56:45;;;;;;;39.03;23.13;;;;;;;4.69;100.00;99411.13;5097193;28;20061;-93
2023/02/04 01:59:12;;;;;;;32.77;19.93;;;;;;;4.74;100.00;99417.28;5096950;28;20092;-92
2023/02/04 02:01:40;;;;;;;34.67;21.02;;;;;;;4.74;100.00;99406.75;5097419;28;20055;-93
2023/02/04 02:04:07;;;;;;;33.90;19.90;;;;;;;4.84;100.00;99426.16;5097554;28;20043;-92
2023/02/04 02:06:34;;;;;;;35.50;19.75;;;;;;;4.91;100.00;99434.97;5096181;28;20054;-93
2023/02/04 02:09:01;;;;;;;32.92;18.88;;;;;;;4.90;100.00;99415.66;5096666;28;20075;-93
2023/02/04 02:11:28;;;;;;;35.60;19.35;;;;;;;5.10;100.00;99413.13;5096344;28;20043;-92
2023/02/04 02:13:55;;;;;;;33.88;20.77;;;;;;;5.11;100.00;99428.06;5097818;28;20450;-95
2023/02/04 02:16:22;;;;;;;30.77;18.58;;;;;;;5.12;100.00;99424.56;5096075;28;20036;-94
2023/02/04 02:18:48;;;;;;;32.63;18.92;;;;;;;5.01;100.00;99392.00;5097067;28;20050;-93
2023/02/04 02:21:18;;;;;;;34.80;19.70;;;;;;;5.15;100.00;99416.66;5097282;28;20083;-94
2023/02/04 02:23:48;;;;;;;28.70;18.23;;;;;;;5.24;100.00;99418.44;5096269;28;20035;-93
2023/02/04 02:26:16;;;;;;;31.88;18.85;;;;;;;5.09;100.00;99384.97;5096656;28;20489;-93
2023/02/04 02:28:42;;;;;;;30.55;18.90;;;;;;;5.14;100.00;99391.19;5097037;28;20039;-93
2023/02/04 02:31:09;;;;;;;34.10;19.15;;;;;;;5.09;100.00;99379.72;5095018;28;20063;-92
2023/02/04 02:33:35;;;;;;;28.27;17.92;;;;;;;5.14;100.00;99406.13;5096737;28;20047;-93
2023/02/04 02:36:01;;;;;;;34.58;19.60;;;;;;;5.03;100.00;99381.44;5090636;28;20043;-93
2023/02/04 02:38:27;;;;;;;34.70;19.85;;;;;;;5.04;100.00;99381.44;5090236;28;20036;-94
2023/02/04 02:40:55;;;;;;;30.80;19.58;;;;;;;5.00;100.00;99370.91;5093011;28;20409;-93
2023/02/04 02:43:23;;;;;;;32.35;18.40;;;;;;;5.03;100.00;99376.16;5096918;28;20035;-94
2023/02/04 02:45:49;;;;;;;32.10;17.90;;;;;;;4.97;100.00;99382.31;5096202;28;20092;-95
2023/02/04 02:48:16;;;;;;;39.13;21.42;;;;;;;4.83;100.00;99354.97;5096946;28;20035;-94
2023/02/04 02:50:43;;;;;;;40.67;23.20;;;;;;;4.98;100.00;99375.28;5096997;28;20039;-92
2023/02/04 02:53:10;;;;;;;37.40;22.27;;;;;;;5.02;100.00;99375.28;5096603;28;20039;-94
2023/02/04 02:55:37;;;;;;;42.10;24.85;;;;;;;5.01;100.00;99367.38;5096674;28;20097;-92
2023/02/04 02:58:11;;;;;;;42.53;23.90;;;;;;;4.95;100.00;99352.44;5096850;28;20074;-92
2023/02/04 03:00:36;;;;;;;35.13;21.45;;;;;;;5.02;100.00;99355.97;5096449;28;20061;-94
2023/02/04 03:03:06;;;;;;;34.75;21.05;;;;;;;5.10;100.00;99365.66;5096441;28;20043;-93
2023/02/04 03:05:37;;;;;;;34.50;21.15;;;;;;;4.98;100.00;99344.53;5096399;28;20039;-94
2023/02/04 03:08:04;;;;;;;32.97;20.45;;;;;;;4.90;100.00;99340.97;5095798;28;20131;-92
2023/02/04 03:10:30;;;;;;;36.78;22.38;;;;;;;4.94;100.00;99351.56;5096249;28;20039;-93
2023/02/04 03:12:58;;;;;;;35.92;22.35;;;;;;;4.80;100.00;99333.91;5096683;28;20039;-92
2023/02/04 03:15:25;;;;;;;38.30;23.52;;;;;;;4.82;100.00;99346.22;5095979;28;20039;-93
2023/02/04 03:17:55;;;;;;;43.63;27.83;;;;;;;4.91;100.00;99348.00;5093282;28;20042;-92
2023/02/04 03:20:23;;;;;;;45.67;28.08;;;;;;;4.84;100.00;99327.78;5096444;28;20035;-92
2023/02/04 03:22:49;;;;;;;41.08;25.80;;;;;;;4.72;100.00;99325.94;5096595;28;20055;-93
2023/02/04 03:25:15;;;;;;;42.28;24.77;;;;;;;4.75;100.00;99328.63;5096704;28;20043;-94
2023/02/04 03:27:41;;;;;;;42.35;25.05;;;;;;;4.69;100.00;99316.28;5096676;28;20369;-93
2023/02/04 03:30:08;;;;;;;39.25;25.40;;;;;;;4.74;100.00;99330.34;5095472;28;20049;-93
2023/02/04 03:32:35;;;;;;;40.45;24.58;;;;;;;4.69;100.00;99324.19;5096550;28;20496;-93
2023/02/04 03:35:01;;;;;;;38.78;23.25;;;;;;;4.59;100.00;99300.41;5096473;28;20573;-94
2023/02/04 03:37:26;;;;;;;34.55;22.42;;;;;;;4.76;100.00;99322.44;5095919;28;20052;-92
2023/02/04 03:39:52;;;;;;;37.33;22.42;;;;;;;4.74;100.00;99317.16;5095932;28;20047;-93
2023/02/04 03:42:18;;;;;;;34.95;21.25;;;;;;;4.62;100.00;99296.06;5095618;28;20046;-93
2023/02/04 03:44:44;;;;;;;38.13;23.73;;;;;;;4.74;100.00;99304.00;5094079;28;20117;-94
2023/02/04 03:47:10;;;;;;;36.47;22.52;;;;;;;4.67;100.00;99285.53;5095307;28;20089;-93
2023/02/04 03:49:37;;;;;;;38.75;23.92;;;;;;;4.80;100.00;99304.91;5096158;28;20039;-92
2023/02/04 03:52:04;;;;;;;33.85;21.80;;;;;;;4.81;100.00;99309.31;5096212;28;20039;-93
2023/02/04 03:54:30;;;;;;;41.47;26.85;;;;;;;4.82;100.00;99316.34;5096295;28;20043;-92
2023/02/04 03:56:56;;;;;;;45.28;27.08;;;;;;;4.84;100.00;99314.59;5096037;28;20043;-93
2023/02/04 03:59:21;;;;;;;45.53;27.77;;;;;;;4.85;100.00;99314.59;5096135;28;20089;-93
2023/02/04 04:01:47;;;;;;;50.15;28.00;;;;;;;4.79;100.00;99300.50;5095547;28;20042;-93
2023/02/04 04:04:13;;;;;;;46.55;27.58;;;;;;;4.76;100.00;99288.22;5096314;28;20040;-92
2023/02/04 04:06:40;;;;;;;48.50;28.63;;;;;;;4.79;100.00;99284.69;5088922;28;20047;-93
2023/02/04 04:09:06;;;;;;;51.50;31.08;;;;;;;4.93;100.00;99309.38;5096145;28;20059;-92
2023/02/04 04:11:32;;;;;;;49.28;30.17;;;;;;;4.92;100.00;99294.41;5095633;28;20071;-92
2023/02/04 04:13:58;;;;;;;50.25;30.90;;;;;;;4.88;100.00;99290.91;5096020;28;20070;-93
2023/02/04 04:16:24;;;;;;;44.63;28.13;;;;;;;4.88;100.00;99295.28;5095001;28;20060;-93
2023/02/04 04:18:49;;;;;;;49.05;30.42;;;;;;;4.86;100.00;99270.69;5095893;28;20093;-93
2023/02/04 04:21:15;;;;;;;45.30;30.00;;;;;;;4.99;100.00;99295.31;5096236;28;20039;-93
2023/02/04 04:23:42;;;;;;;49.70;30.23;;;;;;;4.91;100.00;99263.69;5098383;28;20084;-93
2023/02/04 04:26:08;;;;;;;47.53;30.50;;;;;;;4.97;100.00;99268.97;5099589;28;20040;-93
2023/02/04 04:28:34;;;;;;;46.65;29.38;;;;;;;4.98;100.00;99272.47;5099741;28;20100;-94
2023/02/04 04:31:00;;;;;;;45.92;30.50;;;;;;;4.90;100.00;99259.25;5098335;28;20040;-94
2023/02/04 04:33:26;;;;;;;47.80;29.52;;;;;;;5.01;100.00;99276.03;5099844;28;20047;-93
2023/02/04 04:35:51;;;;;;;45.92;30.10;;;;;;;5.06;100.00;99268.13;5093052;28;20078;-93
2023/02/04 04:38:17;;;;;;;47.90;30.15;;;;;;;5.00;100.00;99268.97;5089976;28;20051;-93
2023/02/04 04:40:45;;;;;;;48.88;29.30;;;;;;;4.88;100.00;99246.09;5099724;28;20047;-93
2023/02/04 04:43:11;;;;;;;48.88;29.35;;;;;;;5.00;100.00;99268.09;5099460;28;20575;-93
2023/02/04 04:45:37;;;;;;;49.40;30.08;;;;;;;4.97;100.00;99265.47;5098932;28;20139;-93
2023/02/04 04:48:03;;;;;;;48.08;29.52;;;;;;;4.96;100.00;99255.78;5099257;28;20035;-92
2023/02/04 04:50:29;;;;;;;49.20;29.88;;;;;;;4.98;100.00;99260.19;5098882;28;20051;-92
2023/02/04 04:52:55;;;;;;;50.30;32.30;;;;;;;4.89;100.00;99253.13;5099058;28;20032;-93
2023/02/04 04:55:21;;;;;;;49.60;30.63;;;;;;;4.95;100.00;99257.53;5098698;28;20880;-91
2023/02/04 04:57:48;;;;;;;46.42;29.38;;;;;;;4.99;100.00;99250.50;5099143;28;20039;-93
2023/02/04 05:00:16;;;;;;;45.67;29.67;;;;;;;4.98;100.00;99248.75;5095029;28;20059;-93
2023/02/04 05:02:42;;;;;;;44.38;25.83;;;;;;;5.02;100.00;99251.41;5099224;28;20426;-93
2023/02/04 05:05:08;;;;;;;41.15;27.40;;;;;;;5.03;100.00;99254.91;5098785;28;20126;-94
2023/02/04 05:07:34;;;;;;;42.58;26.15;;;;;;;5.06;100.00;99258.44;5085843;28;20051;-93
2023/02/04 05:10:00;;;;;;;40.15;25.13;;;;;;;5.11;100.00;99261.09;5096645;28;20032;-93
2023/02/04 05:12:26;;;;;;;39.05;24.90;;;;;;;5.19;100.00;99258.50;5103810;28;20059;-93
2023/02/04 05:14:53;;;;;;;41.95;25.55;;;;;;;5.20;100.00;99260.25;5099073;28;20050;-95
2023/02/04 05:17:19;;;;;;;39.50;25.92;;;;;;;5.17;100.00;99265.53;5099049;28;20040;-94
2023/02/04 05:19:44;;;;;;;44.40;28.27;;;;;;;5.19;100.00;99254.09;5102980;28;20569;-92
2023/02/04 05:22:10;;;;;;;42.05;26.42;;;;;;;5.16;100.00;99243.53;5103386;27;20062;-94
2023/02/04 05:24:36;;;;;;;38.15;24.52;;;;;;;5.27;100.00;99262.00;5117470;27;20035;-92
2023/02/04 05:27:02;;;;;;;43.83;24.67;;;;;;;5.29;100.00;99261.16;5104869;28;20031;-93
2023/02/04 05:29:28;;;;;;;39.42;24.00;;;;;;;5.31;100.00;99250.59;5092443;27;20039;-93
2023/02/04 05:31:55;;;;;;;36.17;23.60;;;;;;;5.25;100.00;99247.97;5088773;28;20044;-95
2023/02/04 05:34:21;;;;;;;35.90;24.27;;;;;;;5.25;100.00;99233.03;5087590;28;20081;-93
2023/02/04 05:36:47;;;;;;;41.42;24.75;;;;;;;5.16;100.00;99256.69;5094629;27;20438;-93
2023/02/04 05:39:13;;;;;;;43.13;24.98;;;;;;;5.16;100.00;99246.16;5109578;28;20080;-90
2023/02/04 05:41:39;;;;;;;43.53;24.80;;;;;;;5.23;100.00;99245.31;5098193;28;20089;-92
2023/02/04 05:44:04;;;;;;;37.33;23.98;;;;;;;5.22;100.00;99242.66;5097665;28;20089;-93
2023/02/04 05:46:30;;;;;;;38.85;24.67;;;;;;;5.21;100.00;99252.34;5097117;28;20070;-94
2023/02/04 05:48:58;;;;;;;39.55;23.58;;;;;;;5.10;100.00;99238.25;5097249;28;20039;-94
2023/02/04 05:51:23;;;;;;;36.78;22.92;;;;;;;5.18;100.00;99238.25;5097999;28;20108;-94
2023/02/04 05:53:49;;;;;;;35.53;22.38;;;;;;;5.25;100.00;99251.47;5098197;28;20047;-93
2023/02/04 05:56:15;;;;;;;39.38;24.08;;;;;;;5.38;100.00;99259.38;5098170;28;20405;-93
2023/02/04 05:58:41;;;;;;;37.08;24.20;;;;;;;5.29;100.00;99265.53;5098110;28;20093;-93
2023/02/04 06:01:07;;;;;;;46.22;23.88;;;;;;;5.30;100.00;99269.94;5096405;28;20488;-93
2023/02/04 06:03:32;;;;;;;39.15;24.15;;;;;;;5.28;100.00;99253.25;5097044;28;20047;-93
2023/02/04 06:06:00;;;;;;;35.78;22.45;;;;;;;5.40;100.00;99260.28;5095245;28;20039;-94
2023/02/04 06:08:26;;;;;;;37.22;22.77;;;;;;;5.30;100.00;99252.34;5085496;28;20441;-93
2023/02/04 06:10:51;;;;;;;34.53;23.30;;;;;;;5.37;100.00;99253.25;5097676;28;20131;-91
2023/02/04 06:13:17;;;;;;;39.40;23.48;;;;;;;5.21;100.00;99227.75;5097646;28;20039;-93
2023/02/04 06:15:43;;;;;;;35.72;23.45;;;;;;;5.28;100.00;99245.31;5096995;28;20050;-92
2023/02/04 06:18:09;;;;;;;41.65;25.67;;;;;;;5.23;100.00;99244.44;5096710;28;20503;-93
2023/02/04 06:20:35;;;;;;;41.50;26.77;;;;;;;5.22;100.00;99245.31;5100443;28;20035;-93
2023/02/04 06:23:02;;;;;;;54.45;29.08;;;;;;;5.33;100.00;99246.19;5100935;28;20515;-93
2023/02/04 06:25:28;;;;;;;63.65;32.22;;;;;;;5.30;100.00;99249.72;5099807;28;20047;-92
2023/02/04 06:27:54;;;;;;;53.80;31.48;;;;;;;5.37;100.00;99273.47;5101653;28;20043;-92
2023/02/04 06:30:20;;;;;;;69.35;34.13;;;;;;;5.23;100.00;99234.78;5107170;28;20039;-93
2023/02/04 06:32:46;;;;;;;68.88;36.22;;;;;;;5.32;100.00;99252.38;5106565;28;20027;-94
2023/02/04 06:35:14;;;;;;;88.88;38.83;;;;;;;5.34;100.00;99266.44;5100535;28;20588;-95
2023/02/04 06:37:39;;;;;;;77.60;37.72;;;;;;;5.21;100.00;99247.06;5114738;27;20047;-93
2023/02/04 06:40:09;;;;;;;69.07;35.53;;;;;;;5.19;100.00;99247.94;5104577;28;20040;-93
2023/02/04 06:42:34;;;;;;;;;;;;;;;5.34;100.00;99283.13;5112534;28;20468;-92
2023/02/04 06:45:01;;;;;;;55.00;29.00;;;;;;;5.20;100.00;99257.59;5105752;28;19966;-93
2023/02/04 06:47:27;;;;;;;50.33;28.92;;;;;;;5.32;100.00;99265.56;5110878;28;20111;-94
2023/02/04 06:49:53;;;;;;;53.75;29.80;;;;;;;5.29;100.00;99247.97;5108092;27;20074;-93
2023/02/04 06:52:19;;;;;;;52.60;29.92;;;;;;;5.34;100.00;99246.22;5102238;28;20049;-92
2023/02/04 06:54:45;;;;;;;49.47;29.15;;;;;;;5.37;100.00;99252.38;5105952;28;20048;-92
2023/02/04 06:57:12;;;;;;;46.95;28.63;;;;;;;5.44;100.00;99255.00;5104575;27;20035;-95
2023/02/04 06:59:42;;;;;;;57.28;27.67;;;;;;;5.40;100.00;99250.63;5105221;28;20504;-92
2023/02/04 07:02:07;;;;;;;;;;;;;;;5.52;100.00;99274.38;5118381;27;20470;-94
2023/02/04 07:04:34;;;;;;;41.33;26.35;;;;;;;5.44;100.00;99273.47;5108685;28;19965;-93
2023/02/04 07:07:00;;;;;;;43.33;26.17;;;;;;;5.45;100.00;99261.19;5107777;28;20062;-93
2023/02/04 07:09:26;;;;;;;40.92;26.83;;;;;;;5.42;100.00;99258.53;5111457;28;20039;-93
2023/02/04 07:11:52;;;;;;;42.92;26.25;;;;;;;5.54;100.00;99269.09;5114247;27;20039;-94
2023/02/04 07:14:20;;;;;;;42.35;26.88;;;;;;;5.61;100.00;99272.63;5104499;28;20031;-93
2023/02/04 07:16:46;;;;;;;44.85;28.00;;;;;;;5.50;100.00;99244.47;5106753;28;20039;-93
2023/02/04 07:19:11;;;;;;;47.78;28.27;;;;;;;5.65;100.00;99275.25;5116558;28;20118;-92
2023/02/04 07:21:37;;;;;;;42.28;26.73;;;;;;;5.66;100.00;99278.78;5111546;27;20039;-93
2023/02/04 07:24:03;;;;;;;44.05;27.63;;;;;;;5.70;100.00;99267.34;5117464;28;20553;-94
2023/02/04 07:26:29;;;;;;;45.40;27.67;;;;;;;5.73;100.00;99259.44;5102459;28;20089;-93
2023/02/04 07:28:55;;;;;;;47.00;28.25;;;;;;;5.78;100.00;99241.84;5108043;28;20047;-94
2023/02/04 07:31:23;;;;;;;44.53;28.30;;;;;;;5.95;100.00;99247.16;5109629;27;20065;-92
2023/02/04 07:33:49;;;;;;;50.03;29.00;;;;;;;5.96;100.00;99236.59;5112887;28;20051;-92
2023/02/04 07:36:15;;;;;;;49.38;29.30;;;;;;;6.23;100.00;99266.47;5107587;28;20404;-93
2023/02/04 07:38:40;;;;;;;45.65;29.65;;;;;;;6.33;100.00;99259.41;5103119;28;20052;-93
2023/02/04 07:41:06;;;;;;;48.20;30.00;;;;;;;6.31;100.00;99237.41;5110721;28;20043;-93
2023/02/04 07:43:32;;;;;;;52.40;32.92;;;;;;;6.35;100.00;99247.97;5103921;28;20070;-93
2023/02/04 07:45:58;;;;;;;47.67;31.25;;;;;;;6.57;100.00;99271.66;5107183;28;20035;-94
2023/02/04 07:48:25;;;;;;;51.33;31.25;;;;;;;6.74;100.00;99269.88;5105474;28;20058;-94
2023/02/04 07:50:51;;;;;;;53.60;30.92;;;;;;;6.75;100.00;99250.47;5105282;28;20031;-94
2023/02/04 07:53:17;;;;;;;53.08;32.60;;;;;;;6.71;100.00;99251.38;5100895;28;20089;-94
2023/02/04 07:55:43;;;;;;;58.90;33.15;;;;;;;6.79;100.00;99257.50;5101427;28;20540;-94
2023/02/04 07:58:09;;;;;;;49.78;32.08;;;;;;;6.88;100.00;99253.94;5109662;28;20062;-95
2023/02/04 08:00:35;;;;;;;48.95;30.17;;;;;;;6.98;100.00;99255.69;5108181;27;20488;-92
2023/02/04 08:03:00;;;;;;;48.60;33.03;;;;;;;7.18;100.00;99274.09;5107918;28;20095;-92
2023/02/04 08:05:29;;;;;;;57.45;36.30;;;;;;;7.29;100.00;99259.94;5108253;27;20090;-94
2023/02/04 08:07:57;;;;;;;52.13;29.05;;;;;;;7.36;100.00;99257.22;5106403;28;20074;-94
2023/02/04 08:10:23;;;;;;;43.95;27.98;;;;;;;7.52;100.00;99273.88;5102496;28;20061;-93
2023/02/04 08:12:49;;;;;;;43.97;26.92;;;;;;;7.52;100.00;99267.69;5104044;28;20044;-94
2023/02/04 08:15:27;;;;;;;43.40;27.45;;;;;;;7.75;100.00;99294.88;5115982;28;20497;-91
2023/02/04 08:17:53;;;;;;;43.40;28.50;;;;;;;7.72;100.00;99267.53;5093170;28;20046;-93
2023/02/04 08:20:19;;;;;;;49.35;30.35;;;;;;;7.72;100.00;99257.84;5090740;28;20052;-94
2023/02/04 08:22:46;;;;;;;44.70;28.02;;;;;;;7.78;100.00;99262.22;5103576;28;20115;-93
2023/02/04 08:25:12;;;;;;;44.05;27.92;;;;;;;7.96;100.00;99282.38;5101731;28;20069;-94
2023/02/04 08:27:38;;;;;;;42.95;26.90;;;;;;;8.16;100.00;99263.66;5101832;28;20035;-93
2023/02/04 08:30:05;;;;;;;45.83;27.27;;;;;;;8.28;100.00;99266.19;5102090;28;20059;-94
2023/02/04 08:32:31;;;;;;;42.65;27.63;;;;;;;8.34;100.00;99254.66;5102040;28;20496;-94
2023/02/04 08:34:58;;;;;;;46.28;27.48;;;;;;;8.30;100.00;99234.38;5100792;28;20092;-94
2023/02/04 08:37:24;;;;;;;44.55;28.58;;;;;;;8.39;100.00;99251.06;5100758;28;20039;-92
2023/02/04 08:39:52;;;;;;;41.30;27.05;;;;;;;8.54;100.00;99257.13;5100872;28;20088;-93
2023/02/04 08:42:18;;;;;;;46.33;28.98;;;;;;;8.59;100.00;99263.25;5100172;28;20036;-93
2023/02/04 08:44:43;;;;;;;43.63;27.23;;;;;;;8.60;100.00;99254.41;5099824;28;20097;-92
2023/02/04 08:47:09;;;;;;;39.13;27.50;;;;;;;8.76;100.00;99253.34;5098282;28;20039;-93
2023/02/04 08:49:35;;;;;;;43.58;26.60;;;;;;;8.78;100.00;99240.94;5099567;28;20040;-93
2023/02/04 08:52:03;;;;;;;41.63;26.85;;;;;;;8.84;99.75;99240.84;5100636;28;20043;-95
2023/02/04 08:54:29;;;;;;;51.42;28.85;;;;;;;8.87;99.82;99232.00;5101046;28;20124;-94
2023/02/04 08:56:56;;;;;;;43.58;25.73;;;;;;;9.14;98.73;99249.31;5104019;28;20063;-94
2023/02/04 08:59:23;;;;;;;44.03;27.70;;;;;;;9.23;98.46;99240.34;5104824;28;20496;-95
2023/02/04 09:01:51;;;;;;;38.00;26.02;;;;;;;9.23;96.84;99219.97;5103796;28;20048;-94
2023/02/04 09:04:17;;;;;;;44.78;25.42;;;;;;;9.29;95.56;99224.34;5102131;28;20035;-95
2023/02/04 09:06:43;;;;;;;40.28;25.52;;;;;;;9.53;96.05;99246.09;5100061;28;20043;-92
2023/02/04 09:09:09;;;;;;;41.33;25.42;;;;;;;9.43;95.08;99232.06;5089625;28;20060;-92
2023/02/04 09:11:35;;;;;;;42.22;24.67;;;;;;;9.43;95.65;99210.84;5099784;28;20139;-93
2023/02/04 09:14:03;;;;;;;39.47;24.30;;;;;;;9.56;94.91;99219.50;5101865;28;20055;-93
2023/02/04 09:16:29;;;;;;;40.22;25.17;;;;;;;9.82;93.94;99235.00;5100243;28;20036;-94
2023/02/04 09:18:55;;;;;;;39.10;24.85;;;;;;;9.77;92.47;99216.50;5102209;28;20047;-94
2023/02/04 09:21:21;;;;;;;37.42;23.73;;;;;;;10.02;92.98;99227.59;5098780;28;20059;-93
2023/02/04 09:23:47;;;;;;;40.40;24.15;;;;;;;10.11;92.46;99231.00;5097803;28;20400;-96
2023/02/04 09:26:13;;;;;;;41.42;25.20;;;;;;;10.13;90.66;99237.13;5099821;28;20061;-93
2023/02/04 09:28:39;;;;;;;43.03;25.55;;;;;;;10.15;91.48;99222.03;5118173;28;20047;-93
2023/02/04 09:31:06;;;;;;;36.20;24.17;;;;;;;10.05;92.24;99222.22;5100625;28;20043;-93
2023/02/04 09:33:32;;;;;;;35.17;22.92;;;;;;;10.28;91.61;99224.47;5100568;28;20039;-93
2023/02/04 09:35:58;;;;;;;33.70;22.42;;;;;;;10.59;89.67;99246.97;5092614;28;20039;-92
2023/02/04 09:38:33;;;;;;;34.25;22.23;;;;;;;10.71;88.14;99225.44;5087309;28;20035;-94
2023/02/04 09:41:03;;;;;;;34.60;21.58;;;;;;;10.74;88.10;99209.41;5100735;28;20043;-94
2023/02/04 09:43:30;;;;;;;;;;;;;;;11.15;87.27;99234.28;5102756;28;20048;-95
2023/02/04 09:45:57;;;;;;;35.05;20.98;;;;;;;11.08;86.02;99208.69;5137315;27;19915;-93
2023/02/04 09:48:25;;;;;;;31.58;21.08;;;;;;;11.33;84.73;99208.16;5101315;28;20040;-92
2023/02/04 09:50:52;;;;;;;32.65;20.80;;;;;;;11.43;84.64;99207.91;5098940;28;20050;-93
2023/02/04 09:53:20;;;;;;;34.88;19.88;;;;;;;11.43;85.28;99215.03;5099762;28;20438;-93
2023/02/04 09:55:49;;;;;;;34.42;20.50;;;;;;;11.70;83.82;99213.47;5100370;28;20043;-94
2023/02/04 09:58:17;;;;;;;32.23;20.00;;;;;;;11.81;82.11;99215.88;5099989;28;20044;-93
2023/02/04 10:00:44;;;;;;;30.38;19.20;;;;;;;11.92;82.04;99227.16;5100867;28;20275;-92
2023/02/04 10:03:14;;;;;;;28.45;17.42;;;;;;;11.95;81.94;99213.78;5100928;28;20496;-93
2023/02/04 10:05:42;;;;;;;28.85;18.05;;;;;;;11.46;83.68;99206.94;5097319;28;20040;-92
2023/02/04 10:08:13;;;;;;;23.27;15.87;;;;;;;11.68;82.15;99213.50;5088085;28;20036;-93
2023/02/04 10:10:39;;;;;;;22.08;12.43;;;;;;;11.68;81.11;99208.16;5098932;28;20272;-92
2023/02/04 10:13:07;;;;;;;21.95;12.93;;;;;;;11.65;80.14;99180.75;5098234;28;20036;-93
2023/02/04 10:15:33;;;;;;;27.48;14.00;;;;;;;11.66;79.92;99198.47;5098226;28;20112;-93
2023/02/04 10:18:02;;;;;;;24.52;14.02;;;;;;;11.70;78.93;99189.50;5102923;28;20074;-93
2023/02/04 10:20:28;;;;;;;22.02;13.43;;;;;;;11.74;78.65;99180.50;5098301;28;20043;-93
2023/02/04 10:22:55;;;;;;;21.20;13.35;;;;;;;11.88;77.50;99188.19;5098127;28;20047;-93
2023/02/04 10:25:26;;;;;;;27.50;13.35;;;;;;;11.84;78.72;99202.44;5097666;28;20070;-92
2023/02/04 10:27:54;;;;;;;21.95;12.70;;;;;;;11.74;80.64;99198.28;5097713;28;20042;-92
2023/02/04 10:30:22;;;;;;;21.25;12.07;;;;;;;11.91;77.74;99194.31;5086096;28;20040;-92
2023/02/04 10:32:49;;;;;;;15.93;8.77;;;;;;;11.98;75.38;99171.03;5096873;28;20115;-94
2023/02/04 10:35:16;;;;;;;15.30;8.80;;;;;;;11.98;73.65;99163.03;5097013;28;20088;-93
2023/02/04 10:37:46;;;;;;;16.58;11.10;;;;;;;12.09;75.76;99184.94;5091638;28;20043;-93
2023/02/04 10:40:30;;;;;;;21.77;11.98;;;;;;;12.07;75.49;99175.25;5098066;28;20561;-93
2023/02/04 10:42:57;;;;;;;19.80;10.80;;;;;;;11.81;75.90;99152.78;5095852;28;20067;-92
2023/02/04 10:45:27;;;;;;;18.58;11.68;;;;;;;11.77;76.88;99150.25;5090760;28;21328;-92
2023/02/04 10:47:55;;;;;;;18.35;11.48;;;;;;;11.78;77.66;99152.00;5095870;28;20032;-95
2023/02/04 10:50:23;;;;;;;19.27;11.85;;;;;;;11.78;77.19;99152.88;5097094;28;20051;-92
2023/02/04 10:52:54;;;;;;;21.52;11.45;;;;;;;11.75;76.61;99152.94;5097340;28;20078;-94
2023/02/04 10:55:22;;;;;;;18.83;10.13;;;;;;;11.88;77.16;99169.53;5097725;28;20039;-92
2023/02/04 10:57:53;;;;;;;22.60;11.25;;;;;;;11.62;77.37;99131.06;5096395;28;20485;-94
2023/02/04 11:00:25;;;;;;;21.25;11.25;;;;;;;11.68;77.30;99130.03;5113541;28;20058;-93
2023/02/04 11:02:57;;;;;;;17.50;10.98;;;;;;;11.67;78.07;99128.31;5096152;28;20040;-94
2023/02/04 11:05:29;;;;;;;20.10;11.93;;;;;;;11.92;75.70;99139.22;5094155;28;20047;-94
2023/02/04 11:07:58;;;;;;;16.52;9.23;;;;;;;11.49;76.56;99110.97;5097443;28;20040;-94
2023/02/04 11:10:32;;;;;;;14.60;8.50;;;;;;;11.49;76.07;99111.88;5098855;28;20046;-93
2023/02/04 11:13:04;;;;;;;14.05;7.82;;;;;;;11.51;75.90;99102.06;5096673;28;20458;-95
2023/02/04 11:16:07;;;;;;;16.63;8.75;;;;;;;11.59;75.98;99106.31;5098301;28;20040;-93
2023/02/04 11:18:50;;;;;;;18.48;9.45;;;;;;;11.66;75.64;99114.09;5096766;28;20063;-93